sensor_id;sensor_type;location;lat;lon;timestamp;P1;durP1;ratioP1;P2;durP2;ratioP2
21611;SDS011;47005;52.292;13.452;2023-09-30T00:01:28;4.22;;;1.30;;
21611;SDS011;47005;52.292;13.452;2023-09-30T00:03:54;3.65;;;1.40;;
21611;SDS011;47005;52.292;13.452;2023-09-30T00:06:19;4.88;;;1.10;;
21611;SDS011;47005;52.292;13.452;2023-09-30T00:08:45;3.72;;;1.23;;
21611;SDS011;47005;52.292;13.452;2023-09-30T00:11:11;2.88;;;1.25;;
21611;SDS011;47005;52.292;13.452;2023-09-30T00:13:41;2.78;;;1.50;;
21611;SDS011;47005;52.292;13.452;2023-09-30T00:16:06;5.07;;;1.20;;
21611;SDS011;47005;52.292;13.452;2023-09-30T00:18:32;2.78;;;1.05;;
21611;SDS011;47005;52.292;13.452;2023-09-30T00:20:58;8.10;;;2.30;;
21611;SDS011;47005;52.292;13.452;2023-09-30T00:23:23;6.63;;;1.83;;
21611;SDS011;47005;52.292;13.452;2023-09-30T00:25:49;3.40;;;1.27;;
21611;SDS011;47005;52.292;13.452;2023-09-30T00:28:15;5.45;;;1.60;;
21611;SDS011;47005;52.292;13.452;2023-09-30T00:30:40;5.88;;;1.70;;
21611;SDS011;47005;52.292;13.452;2023-09-30T00:33:06;5.63;;;1.83;;
21611;SDS011;47005;52.292;13.452;2023-09-30T00:35:33;10.52;;;2.15;;
21611;SDS011;47005;52.292;13.452;2023-09-30T00:37:58;4.60;;;1.70;;
21611;SDS011;47005;52.292;13.452;2023-09-30T00:40:24;4.68;;;1.20;;
21611;SDS011;47005;52.292;13.452;2023-09-30T00:42:49;5.30;;;1.50;;
21611;SDS011;47005;52.292;13.452;2023-09-30T00:45:15;7.07;;;1.95;;
21611;SDS011;47005;52.292;13.452;2023-09-30T00:47:40;7.18;;;1.65;;
21611;SDS011;47005;52.292;13.452;2023-09-30T00:50:06;8.20;;;1.45;;
21611;SDS011;47005;52.292;13.452;2023-09-30T00:52:33;6.43;;;1.65;;
21611;SDS011;47005;52.292;13.452;2023-09-30T00:55:01;4.88;;;1.63;;
21611;SDS011;47005;52.292;13.452;2023-09-30T00:57:27;9.00;;;2.38;;
21611;SDS011;47005;52.292;13.452;2023-09-30T00:59:55;4.53;;;1.92;;
21611;SDS011;47005;52.292;13.452;2023-09-30T01:02:22;4.30;;;1.90;;
21611;SDS011;47005;52.292;13.452;2023-09-30T01:04:48;7.03;;;1.83;;
21611;SDS011;47005;52.292;13.452;2023-09-30T01:07:14;4.18;;;1.33;;
21611;SDS011;47005;52.292;13.452;2023-09-30T01:09:40;3.25;;;1.80;;
21611;SDS011;47005;52.292;13.452;2023-09-30T01:12:06;4.30;;;1.58;;
21611;SDS011;47005;52.292;13.452;2023-09-30T01:14:33;7.07;;;2.22;;
21611;SDS011;47005;52.292;13.452;2023-09-30T01:17:00;7.40;;;1.73;;
21611;SDS011;47005;52.292;13.452;2023-09-30T01:19:26;5.90;;;1.60;;
21611;SDS011;47005;52.292;13.452;2023-09-30T01:21:55;7.85;;;1.90;;
21611;SDS011;47005;52.292;13.452;2023-09-30T01:24:29;4.90;;;1.73;;
21611;SDS011;47005;52.292;13.452;2023-09-30T01:26:55;6.63;;;2.10;;
21611;SDS011;47005;52.292;13.452;2023-09-30T01:29:21;4.45;;;1.48;;
21611;SDS011;47005;52.292;13.452;2023-09-30T01:31:47;6.88;;;1.50;;
21611;SDS011;47005;52.292;13.452;2023-09-30T01:34:14;11.65;;;2.40;;
21611;SDS011;47005;52.292;13.452;2023-09-30T01:36:43;9.23;;;1.73;;
21611;SDS011;47005;52.292;13.452;2023-09-30T01:39:09;6.78;;;2.05;;
21611;SDS011;47005;52.292;13.452;2023-09-30T01:41:36;9.50;;;1.90;;
21611;SDS011;47005;52.292;13.452;2023-09-30T01:44:03;5.50;;;1.75;;
21611;SDS011;47005;52.292;13.452;2023-09-30T01:46:29;6.35;;;1.95;;
21611;SDS011;47005;52.292;13.452;2023-09-30T01:48:54;7.80;;;1.80;;
21611;SDS011;47005;52.292;13.452;2023-09-30T01:51:20;5.25;;;1.70;;
21611;SDS011;47005;52.292;13.452;2023-09-30T01:53:46;6.72;;;2.15;;
21611;SDS011;47005;52.292;13.452;2023-09-30T01:56:12;14.90;;;2.50;;
21611;SDS011;47005;52.292;13.452;2023-09-30T01:58:38;5.20;;;2.30;;
21611;SDS011;47005;52.292;13.452;2023-09-30T02:01:04;10.05;;;2.75;;
21611;SDS011;47005;52.292;13.452;2023-09-30T02:03:29;10.93;;;2.40;;
21611;SDS011;47005;52.292;13.452;2023-09-30T02:05:56;7.50;;;2.55;;
21611;SDS011;47005;52.292;13.452;2023-09-30T02:08:23;6.35;;;2.30;;
21611;SDS011;47005;52.292;13.452;2023-09-30T02:10:48;10.68;;;2.33;;
21611;SDS011;47005;52.292;13.452;2023-09-30T02:13:16;8.60;;;2.35;;
21611;SDS011;47005;52.292;13.452;2023-09-30T02:15:41;5.53;;;2.22;;
21611;SDS011;47005;52.292;13.452;2023-09-30T02:18:07;9.32;;;2.10;;
21611;SDS011;47005;52.292;13.452;2023-09-30T02:20:34;11.30;;;2.80;;
21611;SDS011;47005;52.292;13.452;2023-09-30T02:23:01;5.32;;;1.65;;
21611;SDS011;47005;52.292;13.452;2023-09-30T02:25:27;11.50;;;2.78;;
21611;SDS011;47005;52.292;13.452;2023-09-30T02:27:53;4.90;;;1.92;;
21611;SDS011;47005;52.292;13.452;2023-09-30T02:30:19;10.65;;;2.72;;
21611;SDS011;47005;52.292;13.452;2023-09-30T02:32:46;6.95;;;2.72;;
21611;SDS011;47005;52.292;13.452;2023-09-30T02:35:12;8.23;;;2.03;;
21611;SDS011;47005;52.292;13.452;2023-09-30T02:37:38;4.88;;;2.13;;
21611;SDS011;47005;52.292;13.452;2023-09-30T02:40:05;8.15;;;2.75;;
21611;SDS011;47005;52.292;13.452;2023-09-30T02:42:38;13.85;;;2.78;;
21611;SDS011;47005;52.292;13.452;2023-09-30T02:45:05;8.60;;;2.25;;
21611;SDS011;47005;52.292;13.452;2023-09-30T02:47:33;5.55;;;2.03;;
21611;SDS011;47005;52.292;13.452;2023-09-30T02:49:59;5.25;;;2.00;;
21611;SDS011;47005;52.292;13.452;2023-09-30T02:52:26;8.27;;;2.80;;
21611;SDS011;47005;52.292;13.452;2023-09-30T02:54:53;8.30;;;2.05;;
21611;SDS011;47005;52.292;13.452;2023-09-30T02:57:19;8.07;;;2.63;;
21611;SDS011;47005;52.292;13.452;2023-09-30T02:59:45;5.38;;;2.10;;
21611;SDS011;47005;52.292;13.452;2023-09-30T03:02:11;10.02;;;2.03;;
21611;SDS011;47005;52.292;13.452;2023-09-30T03:04:37;8.25;;;2.53;;
21611;SDS011;47005;52.292;13.452;2023-09-30T03:07:02;8.80;;;2.20;;
21611;SDS011;47005;52.292;13.452;2023-09-30T03:09:28;14.73;;;2.55;;
21611;SDS011;47005;52.292;13.452;2023-09-30T03:11:54;9.15;;;3.05;;
21611;SDS011;47005;52.292;13.452;2023-09-30T03:14:24;9.27;;;2.70;;
21611;SDS011;47005;52.292;13.452;2023-09-30T03:16:50;14.27;;;2.80;;
21611;SDS011;47005;52.292;13.452;2023-09-30T03:19:17;5.70;;;2.13;;
21611;SDS011;47005;52.292;13.452;2023-09-30T03:21:42;9.73;;;2.65;;
21611;SDS011;47005;52.292;13.452;2023-09-30T03:24:08;7.55;;;2.50;;
21611;SDS011;47005;52.292;13.452;2023-09-30T03:26:34;8.90;;;2.25;;
21611;SDS011;47005;52.292;13.452;2023-09-30T03:29:00;12.55;;;2.55;;
21611;SDS011;47005;52.292;13.452;2023-09-30T03:31:26;8.23;;;2.45;;
21611;SDS011;47005;52.292;13.452;2023-09-30T03:33:52;12.38;;;2.63;;
21611;SDS011;47005;52.292;13.452;2023-09-30T03:36:22;10.18;;;2.42;;
21611;SDS011;47005;52.292;13.452;2023-09-30T03:38:51;13.85;;;3.92;;
21611;SDS011;47005;52.292;13.452;2023-09-30T03:41:19;12.30;;;3.00;;
21611;SDS011;47005;52.292;13.452;2023-09-30T03:43:45;8.82;;;2.40;;
21611;SDS011;47005;52.292;13.452;2023-09-30T03:46:12;10.77;;;2.55;;
21611;SDS011;47005;52.292;13.452;2023-09-30T03:48:38;8.93;;;2.63;;
21611;SDS011;47005;52.292;13.452;2023-09-30T03:51:08;9.25;;;2.90;;
21611;SDS011;47005;52.292;13.452;2023-09-30T03:53:40;18.95;;;3.83;;
21611;SDS011;47005;52.292;13.452;2023-09-30T03:56:10;6.85;;;2.85;;
21611;SDS011;47005;52.292;13.452;2023-09-30T03:58:39;9.77;;;3.03;;
21611;SDS011;47005;52.292;13.452;2023-09-30T04:01:06;11.52;;;3.15;;
21611;SDS011;47005;52.292;13.452;2023-09-30T04:03:32;11.93;;;3.17;;
21611;SDS011;47005;52.292;13.452;2023-09-30T04:05:59;9.18;;;2.92;;
21611;SDS011;47005;52.292;13.452;2023-09-30T04:08:27;10.68;;;2.67;;
21611;SDS011;47005;52.292;13.452;2023-09-30T04:10:53;9.10;;;2.75;;
21611;SDS011;47005;52.292;13.452;2023-09-30T04:13:19;6.30;;;3.10;;
21611;SDS011;47005;52.292;13.452;2023-09-30T04:15:46;4.82;;;2.38;;
21611;SDS011;47005;52.292;13.452;2023-09-30T04:18:12;9.82;;;2.53;;
21611;SDS011;47005;52.292;13.452;2023-09-30T04:20:37;7.47;;;2.58;;
21611;SDS011;47005;52.292;13.452;2023-09-30T04:23:04;10.10;;;3.08;;
21611;SDS011;47005;52.292;13.452;2023-09-30T04:25:35;17.52;;;3.72;;
21611;SDS011;47005;52.292;13.452;2023-09-30T04:28:01;7.18;;;2.42;;
21611;SDS011;47005;52.292;13.452;2023-09-30T04:30:27;6.82;;;2.25;;
21611;SDS011;47005;52.292;13.452;2023-09-30T04:32:54;8.38;;;3.03;;
21611;SDS011;47005;52.292;13.452;2023-09-30T04:35:20;9.75;;;2.75;;
21611;SDS011;47005;52.292;13.452;2023-09-30T04:37:46;11.63;;;3.28;;
21611;SDS011;47005;52.292;13.452;2023-09-30T04:40:12;8.68;;;3.00;;
21611;SDS011;47005;52.292;13.452;2023-09-30T04:42:44;11.18;;;3.05;;
21611;SDS011;47005;52.292;13.452;2023-09-30T04:45:11;9.98;;;3.03;;
21611;SDS011;47005;52.292;13.452;2023-09-30T04:47:38;8.48;;;2.47;;
21611;SDS011;47005;52.292;13.452;2023-09-30T04:50:07;10.60;;;3.53;;
21611;SDS011;47005;52.292;13.452;2023-09-30T04:52:36;12.65;;;3.33;;
21611;SDS011;47005;52.292;13.452;2023-09-30T04:55:04;6.18;;;2.97;;
21611;SDS011;47005;52.292;13.452;2023-09-30T04:57:30;12.25;;;2.90;;
21611;SDS011;47005;52.292;13.452;2023-09-30T04:59:56;11.45;;;2.97;;
21611;SDS011;47005;52.292;13.452;2023-09-30T05:02:23;11.38;;;3.15;;
21611;SDS011;47005;52.292;13.452;2023-09-30T05:04:49;9.00;;;2.70;;
21611;SDS011;47005;52.292;13.452;2023-09-30T05:07:15;7.53;;;2.72;;
21611;SDS011;47005;52.292;13.452;2023-09-30T05:09:41;8.65;;;3.25;;
21611;SDS011;47005;52.292;13.452;2023-09-30T05:12:07;7.50;;;2.42;;
21611;SDS011;47005;52.292;13.452;2023-09-30T05:14:33;9.52;;;2.67;;
21611;SDS011;47005;52.292;13.452;2023-09-30T05:17:00;6.57;;;2.45;;
21611;SDS011;47005;52.292;13.452;2023-09-30T05:19:26;6.47;;;2.28;;
21611;SDS011;47005;52.292;13.452;2023-09-30T05:21:52;9.07;;;3.28;;
21611;SDS011;47005;52.292;13.452;2023-09-30T05:24:17;11.32;;;3.72;;
21611;SDS011;47005;52.292;13.452;2023-09-30T05:26:44;7.97;;;3.15;;
21611;SDS011;47005;52.292;13.452;2023-09-30T05:29:10;9.50;;;3.08;;
21611;SDS011;47005;52.292;13.452;2023-09-30T05:31:36;11.10;;;3.10;;
21611;SDS011;47005;52.292;13.452;2023-09-30T05:34:02;7.35;;;2.40;;
21611;SDS011;47005;52.292;13.452;2023-09-30T05:36:27;10.40;;;2.75;;
21611;SDS011;47005;52.292;13.452;2023-09-30T05:38:54;7.57;;;3.15;;
21611;SDS011;47005;52.292;13.452;2023-09-30T05:41:20;10.23;;;2.60;;
21611;SDS011;47005;52.292;13.452;2023-09-30T05:43:46;14.77;;;3.22;;
21611;SDS011;47005;52.292;13.452;2023-09-30T05:46:12;15.48;;;3.58;;
21611;SDS011;47005;52.292;13.452;2023-09-30T05:48:38;9.93;;;2.95;;
21611;SDS011;47005;52.292;13.452;2023-09-30T05:51:04;7.57;;;2.58;;
21611;SDS011;47005;52.292;13.452;2023-09-30T05:53:31;12.13;;;3.97;;
21611;SDS011;47005;52.292;13.452;2023-09-30T05:55:58;12.32;;;2.60;;
21611;SDS011;47005;52.292;13.452;2023-09-30T05:58:24;9.68;;;3.30;;
21611;SDS011;47005;52.292;13.452;2023-09-30T06:00:51;9.40;;;2.78;;
21611;SDS011;47005;52.292;13.452;2023-09-30T06:03:18;10.07;;;2.35;;
21611;SDS011;47005;52.292;13.452;2023-09-30T06:05:46;10.32;;;3.28;;
21611;SDS011;47005;52.292;13.452;2023-09-30T06:08:13;11.52;;;3.00;;
21611;SDS011;47005;52.292;13.452;2023-09-30T06:10:40;9.20;;;3.63;;
21611;SDS011;47005;52.292;13.452;2023-09-30T06:13:09;11.52;;;3.00;;
21611;SDS011;47005;52.292;13.452;2023-09-30T06:15:39;9.05;;;3.05;;
21611;SDS011;47005;52.292;13.452;2023-09-30T06:18:06;10.90;;;3.10;;
21611;SDS011;47005;52.292;13.452;2023-09-30T06:20:33;7.35;;;2.40;;
21611;SDS011;47005;52.292;13.452;2023-09-30T06:22:59;7.50;;;2.70;;
21611;SDS011;47005;52.292;13.452;2023-09-30T06:25:27;7.32;;;2.92;;
21611;SDS011;47005;52.292;13.452;2023-09-30T06:27:55;8.00;;;2.47;;
21611;SDS011;47005;52.292;13.452;2023-09-30T06:30:21;11.30;;;3.75;;
21611;SDS011;47005;52.292;13.452;2023-09-30T06:32:54;15.63;;;3.33;;
21611;SDS011;47005;52.292;13.452;2023-09-30T06:35:25;9.80;;;2.88;;
21611;SDS011;47005;52.292;13.452;2023-09-30T06:37:51;9.93;;;2.80;;
21611;SDS011;47005;52.292;13.452;2023-09-30T06:40:17;11.38;;;3.15;;
21611;SDS011;47005;52.292;13.452;2023-09-30T06:42:43;8.60;;;3.03;;
21611;SDS011;47005;52.292;13.452;2023-09-30T06:45:09;12.93;;;2.80;;
21611;SDS011;47005;52.292;13.452;2023-09-30T06:47:36;5.80;;;2.53;;
21611;SDS011;47005;52.292;13.452;2023-09-30T06:50:03;11.48;;;2.75;;
21611;SDS011;47005;52.292;13.452;2023-09-30T06:52:39;9.73;;;2.63;;
21611;SDS011;47005;52.292;13.452;2023-09-30T06:55:06;5.47;;;2.20;;
21611;SDS011;47005;52.292;13.452;2023-09-30T06:57:36;10.20;;;3.05;;
21611;SDS011;47005;52.292;13.452;2023-09-30T07:00:12;13.40;;;3.00;;
21611;SDS011;47005;52.292;13.452;2023-09-30T07:02:39;9.15;;;2.53;;
21611;SDS011;47005;52.292;13.452;2023-09-30T07:05:07;9.98;;;2.92;;
21611;SDS011;47005;52.292;13.452;2023-09-30T07:07:37;6.63;;;2.33;;
21611;SDS011;47005;52.292;13.452;2023-09-30T07:10:04;5.95;;;2.97;;
21611;SDS011;47005;52.292;13.452;2023-09-30T07:12:30;7.00;;;2.67;;
21611;SDS011;47005;52.292;13.452;2023-09-30T07:14:57;9.65;;;3.15;;
21611;SDS011;47005;52.292;13.452;2023-09-30T07:17:23;6.53;;;3.10;;
21611;SDS011;47005;52.292;13.452;2023-09-30T07:19:49;9.13;;;3.00;;
21611;SDS011;47005;52.292;13.452;2023-09-30T07:22:15;11.05;;;3.90;;
21611;SDS011;47005;52.292;13.452;2023-09-30T07:24:41;13.52;;;2.70;;
21611;SDS011;47005;52.292;13.452;2023-09-30T07:27:07;9.48;;;2.28;;
21611;SDS011;47005;52.292;13.452;2023-09-30T07:29:32;12.00;;;3.00;;
21611;SDS011;47005;52.292;13.452;2023-09-30T07:31:58;9.85;;;2.92;;
21611;SDS011;47005;52.292;13.452;2023-09-30T07:34:24;15.85;;;2.78;;
21611;SDS011;47005;52.292;13.452;2023-09-30T07:36:49;7.35;;;2.90;;
21611;SDS011;47005;52.292;13.452;2023-09-30T07:39:15;9.20;;;2.22;;
21611;SDS011;47005;52.292;13.452;2023-09-30T07:41:42;9.20;;;2.22;;
21611;SDS011;47005;52.292;13.452;2023-09-30T07:44:08;7.05;;;2.45;;
21611;SDS011;47005;52.292;13.452;2023-09-30T07:46:34;8.57;;;3.30;;
21611;SDS011;47005;52.292;13.452;2023-09-30T07:49:00;8.90;;;2.50;;
21611;SDS011;47005;52.292;13.452;2023-09-30T07:51:28;10.10;;;2.63;;
21611;SDS011;47005;52.292;13.452;2023-09-30T07:53:54;10.10;;;2.67;;
21611;SDS011;47005;52.292;13.452;2023-09-30T07:56:22;8.50;;;1.88;;
21611;SDS011;47005;52.292;13.452;2023-09-30T07:58:50;14.35;;;3.60;;
21611;SDS011;47005;52.292;13.452;2023-09-30T08:01:16;6.53;;;2.45;;
21611;SDS011;47005;52.292;13.452;2023-09-30T08:03:43;12.60;;;2.83;;
21611;SDS011;47005;52.292;13.452;2023-09-30T08:06:08;6.32;;;2.20;;
21611;SDS011;47005;52.292;13.452;2023-09-30T08:08:34;11.63;;;3.25;;
21611;SDS011;47005;52.292;13.452;2023-09-30T08:11:01;9.77;;;2.22;;
21611;SDS011;47005;52.292;13.452;2023-09-30T08:13:26;8.82;;;2.47;;
21611;SDS011;47005;52.292;13.452;2023-09-30T08:15:54;7.70;;;2.90;;
21611;SDS011;47005;52.292;13.452;2023-09-30T08:18:20;8.75;;;2.08;;
21611;SDS011;47005;52.292;13.452;2023-09-30T08:20:46;9.13;;;2.60;;
21611;SDS011;47005;52.292;13.452;2023-09-30T08:23:12;5.47;;;2.75;;
21611;SDS011;47005;52.292;13.452;2023-09-30T08:25:38;14.35;;;3.35;;
21611;SDS011;47005;52.292;13.452;2023-09-30T08:28:04;13.73;;;3.00;;
21611;SDS011;47005;52.292;13.452;2023-09-30T08:30:30;10.52;;;2.63;;
21611;SDS011;47005;52.292;13.452;2023-09-30T08:32:58;10.27;;;3.05;;
21611;SDS011;47005;52.292;13.452;2023-09-30T08:35:24;8.75;;;2.42;;
21611;SDS011;47005;52.292;13.452;2023-09-30T08:37:50;11.38;;;2.45;;
21611;SDS011;47005;52.292;13.452;2023-09-30T08:40:19;9.10;;;3.55;;
21611;SDS011;47005;52.292;13.452;2023-09-30T08:42:47;11.70;;;2.35;;
21611;SDS011;47005;52.292;13.452;2023-09-30T08:45:16;12.52;;;2.67;;
21611;SDS011;47005;52.292;13.452;2023-09-30T08:47:42;5.90;;;2.30;;
21611;SDS011;47005;52.292;13.452;2023-09-30T08:50:08;8.07;;;2.75;;
21611;SDS011;47005;52.292;13.452;2023-09-30T08:52:35;10.90;;;2.30;;
21611;SDS011;47005;52.292;13.452;2023-09-30T08:55:06;7.57;;;2.53;;
21611;SDS011;47005;52.292;13.452;2023-09-30T08:57:33;16.35;;;3.03;;
21611;SDS011;47005;52.292;13.452;2023-09-30T09:00:05;11.15;;;3.20;;
21611;SDS011;47005;52.292;13.452;2023-09-30T09:02:35;10.65;;;2.85;;
21611;SDS011;47005;52.292;13.452;2023-09-30T09:05:01;6.88;;;2.42;;
21611;SDS011;47005;52.292;13.452;2023-09-30T09:07:27;7.47;;;2.70;;
21611;SDS011;47005;52.292;13.452;2023-09-30T09:10:03;16.13;;;3.40;;
21611;SDS011;47005;52.292;13.452;2023-09-30T09:12:30;11.90;;;3.13;;
21611;SDS011;47005;52.292;13.452;2023-09-30T09:14:55;9.98;;;2.88;;
21611;SDS011;47005;52.292;13.452;2023-09-30T09:17:21;6.97;;;2.42;;
21611;SDS011;47005;52.292;13.452;2023-09-30T09:19:59;12.95;;;3.80;;
21611;SDS011;47005;52.292;13.452;2023-09-30T09:22:37;7.45;;;2.80;;
21611;SDS011;47005;52.292;13.452;2023-09-30T09:25:06;13.90;;;2.85;;
21611;SDS011;47005;52.292;13.452;2023-09-30T09:27:35;5.90;;;2.28;;
21611;SDS011;47005;52.292;13.452;2023-09-30T09:33:04;10.40;;;2.70;;
21611;SDS011;47005;52.292;13.452;2023-09-30T09:35:31;11.77;;;3.10;;
21611;SDS011;47005;52.292;13.452;2023-09-30T09:38:05;10.32;;;2.75;;
21611;SDS011;47005;52.292;13.452;2023-09-30T09:40:32;11.30;;;2.53;;
21611;SDS011;47005;52.292;13.452;2023-09-30T09:43:03;9.10;;;2.70;;
21611;SDS011;47005;52.292;13.452;2023-09-30T09:45:31;10.93;;;2.35;;
21611;SDS011;47005;52.292;13.452;2023-09-30T09:47:59;11.52;;;2.22;;
21611;SDS011;47005;52.292;13.452;2023-09-30T09:50:24;5.40;;;1.98;;
21611;SDS011;47005;52.292;13.452;2023-09-30T09:52:51;9.15;;;2.58;;
21611;SDS011;47005;52.292;13.452;2023-09-30T09:55:18;11.23;;;2.88;;
21611;SDS011;47005;52.292;13.452;2023-09-30T09:57:47;8.18;;;1.95;;
21611;SDS011;47005;52.292;13.452;2023-09-30T10:00:17;8.02;;;2.00;;
21611;SDS011;47005;52.292;13.452;2023-09-30T10:02:47;6.53;;;1.83;;
21611;SDS011;47005;52.292;13.452;2023-09-30T10:05:14;11.75;;;2.15;;
21611;SDS011;47005;52.292;13.452;2023-09-30T10:08:27;5.97;;;2.13;;
21611;SDS011;47005;52.292;13.452;2023-09-30T10:10:35;3.00;;;1.75;;
21611;SDS011;47005;52.292;13.452;2023-09-30T10:13:02;12.55;;;2.75;;
21611;SDS011;47005;52.292;13.452;2023-09-30T10:17:56;7.70;;;2.08;;
21611;SDS011;47005;52.292;13.452;2023-09-30T10:20:33;6.75;;;1.95;;
21611;SDS011;47005;52.292;13.452;2023-09-30T10:28:43;6.97;;;2.03;;
21611;SDS011;47005;52.292;13.452;2023-09-30T10:31:12;7.70;;;1.98;;
21611;SDS011;47005;52.292;13.452;2023-09-30T10:38:55;10.60;;;2.08;;
21611;SDS011;47005;52.292;13.452;2023-09-30T10:44:50;8.57;;;2.47;;
21611;SDS011;47005;52.292;13.452;2023-09-30T10:46:52;8.25;;;2.00;;
21611;SDS011;47005;52.292;13.452;2023-09-30T10:51:50;5.75;;;1.92;;
21611;SDS011;47005;52.292;13.452;2023-09-30T10:54:23;3.30;;;1.38;;
21611;SDS011;47005;52.292;13.452;2023-09-30T10:56:50;6.40;;;1.65;;
21611;SDS011;47005;52.292;13.452;2023-09-30T11:01:49;4.75;;;1.50;;
21611;SDS011;47005;52.292;13.452;2023-09-30T11:04:16;6.20;;;1.02;;
21611;SDS011;47005;52.292;13.452;2023-09-30T11:06:43;8.60;;;1.73;;
21611;SDS011;47005;52.292;13.452;2023-09-30T11:09:09;7.50;;;1.85;;
21611;SDS011;47005;52.292;13.452;2023-09-30T11:11:51;7.38;;;1.73;;
21611;SDS011;47005;52.292;13.452;2023-09-30T11:16:52;5.07;;;1.40;;
21611;SDS011;47005;52.292;13.452;2023-09-30T11:19:19;5.90;;;1.38;;
21611;SDS011;47005;52.292;13.452;2023-09-30T11:21:49;3.10;;;1.42;;
21611;SDS011;47005;52.292;13.452;2023-09-30T11:24:16;6.65;;;1.65;;
21611;SDS011;47005;52.292;13.452;2023-09-30T11:26:42;12.75;;;1.42;;
21611;SDS011;47005;52.292;13.452;2023-09-30T11:29:15;7.78;;;1.90;;
21611;SDS011;47005;52.292;13.452;2023-09-30T11:31:47;8.10;;;1.58;;
21611;SDS011;47005;52.292;13.452;2023-09-30T11:34:15;6.28;;;1.58;;
21611;SDS011;47005;52.292;13.452;2023-09-30T11:36:47;9.52;;;2.15;;
21611;SDS011;47005;52.292;13.452;2023-09-30T11:39:24;7.45;;;1.83;;
21611;SDS011;47005;52.292;13.452;2023-09-30T11:41:51;6.50;;;1.33;;
21611;SDS011;47005;52.292;13.452;2023-09-30T11:44:20;3.78;;;1.20;;
21611;SDS011;47005;52.292;13.452;2023-09-30T11:46:53;8.88;;;1.73;;
21611;SDS011;47005;52.292;13.452;2023-09-30T11:52:01;7.10;;;1.30;;
21611;SDS011;47005;52.292;13.452;2023-09-30T11:54:29;12.02;;;1.60;;
21611;SDS011;47005;52.292;13.452;2023-09-30T11:56:55;4.85;;;1.40;;
21611;SDS011;47005;52.292;13.452;2023-09-30T11:59:21;12.07;;;2.63;;
21611;SDS011;47005;52.292;13.452;2023-09-30T12:01:47;4.85;;;1.40;;
21611;SDS011;47005;52.292;13.452;2023-09-30T12:04:16;5.57;;;1.40;;
21611;SDS011;47005;52.292;13.452;2023-09-30T12:06:44;6.78;;;1.90;;
21611;SDS011;47005;52.292;13.452;2023-09-30T12:09:10;6.25;;;1.45;;
21611;SDS011;47005;52.292;13.452;2023-09-30T12:11:39;7.47;;;1.17;;
21611;SDS011;47005;52.292;13.452;2023-09-30T12:14:09;4.88;;;2.20;;
21611;SDS011;47005;52.292;13.452;2023-09-30T12:16:36;4.65;;;1.65;;
21611;SDS011;47005;52.292;13.452;2023-09-30T12:19:02;4.55;;;1.30;;
21611;SDS011;47005;52.292;13.452;2023-09-30T12:21:28;7.07;;;1.58;;
21611;SDS011;47005;52.292;13.452;2023-09-30T12:23:53;3.25;;;1.10;;
21611;SDS011;47005;52.292;13.452;2023-09-30T12:26:19;3.92;;;1.10;;
21611;SDS011;47005;52.292;13.452;2023-09-30T12:28:45;4.75;;;1.30;;
21611;SDS011;47005;52.292;13.452;2023-09-30T12:31:12;10.35;;;1.38;;
21611;SDS011;47005;52.292;13.452;2023-09-30T12:33:38;6.10;;;1.95;;
21611;SDS011;47005;52.292;13.452;2023-09-30T12:36:05;6.15;;;1.65;;
21611;SDS011;47005;52.292;13.452;2023-09-30T12:38:30;9.27;;;1.52;;
21611;SDS011;47005;52.292;13.452;2023-09-30T12:40:56;3.10;;;1.30;;
21611;SDS011;47005;52.292;13.452;2023-09-30T12:43:22;5.53;;;1.83;;
21611;SDS011;47005;52.292;13.452;2023-09-30T12:45:48;8.13;;;1.55;;
21611;SDS011;47005;52.292;13.452;2023-09-30T12:48:14;5.45;;;1.67;;
21611;SDS011;47005;52.292;13.452;2023-09-30T12:50:40;4.35;;;1.42;;
21611;SDS011;47005;52.292;13.452;2023-09-30T12:53:06;5.03;;;1.10;;
21611;SDS011;47005;52.292;13.452;2023-09-30T12:55:32;9.00;;;1.75;;
21611;SDS011;47005;52.292;13.452;2023-09-30T12:57:58;1.58;;;0.93;;
21611;SDS011;47005;52.292;13.452;2023-09-30T13:00:24;4.10;;;1.00;;
21611;SDS011;47005;52.292;13.452;2023-09-30T13:02:51;4.75;;;1.38;;
21611;SDS011;47005;52.292;13.452;2023-09-30T13:05:17;4.20;;;0.82;;
21611;SDS011;47005;52.292;13.452;2023-09-30T13:07:43;6.40;;;1.00;;
21611;SDS011;47005;52.292;13.452;2023-09-30T13:10:09;2.55;;;1.02;;
21611;SDS011;47005;52.292;13.452;2023-09-30T13:12:35;2.42;;;0.93;;
21611;SDS011;47005;52.292;13.452;2023-09-30T13:15:01;9.70;;;1.40;;
21611;SDS011;47005;52.292;13.452;2023-09-30T13:17:27;5.75;;;1.40;;
21611;SDS011;47005;52.292;13.452;2023-09-30T13:19:53;2.50;;;1.13;;
21611;SDS011;47005;52.292;13.452;2023-09-30T13:22:20;5.20;;;1.00;;
21611;SDS011;47005;52.292;13.452;2023-09-30T13:24:46;4.85;;;1.27;;
21611;SDS011;47005;52.292;13.452;2023-09-30T13:27:11;6.65;;;1.42;;
21611;SDS011;47005;52.292;13.452;2023-09-30T13:29:40;3.67;;;1.15;;
21611;SDS011;47005;52.292;13.452;2023-09-30T13:32:06;9.82;;;1.25;;
21611;SDS011;47005;52.292;13.452;2023-09-30T13:34:33;2.08;;;1.00;;
21611;SDS011;47005;52.292;13.452;2023-09-30T13:36:59;3.47;;;0.98;;
21611;SDS011;47005;52.292;13.452;2023-09-30T13:39:25;5.78;;;1.05;;
21611;SDS011;47005;52.292;13.452;2023-09-30T13:41:50;2.35;;;1.65;;
21611;SDS011;47005;52.292;13.452;2023-09-30T13:44:16;7.97;;;1.13;;
21611;SDS011;47005;52.292;13.452;2023-09-30T13:46:43;2.83;;;0.93;;
21611;SDS011;47005;52.292;13.452;2023-09-30T13:49:09;2.33;;;0.88;;
21611;SDS011;47005;52.292;13.452;2023-09-30T13:51:35;2.75;;;0.93;;
21611;SDS011;47005;52.292;13.452;2023-09-30T13:54:00;3.47;;;1.30;;
21611;SDS011;47005;52.292;13.452;2023-09-30T13:56:26;8.25;;;1.85;;
21611;SDS011;47005;52.292;13.452;2023-09-30T13:58:52;4.35;;;1.42;;
21611;SDS011;47005;52.292;13.452;2023-09-30T14:01:18;3.20;;;1.08;;
21611;SDS011;47005;52.292;13.452;2023-09-30T14:03:44;4.68;;;1.80;;
21611;SDS011;47005;52.292;13.452;2023-09-30T14:06:12;5.80;;;1.75;;
21611;SDS011;47005;52.292;13.452;2023-09-30T14:08:38;2.55;;;1.20;;
21611;SDS011;47005;52.292;13.452;2023-09-30T14:11:08;6.53;;;1.65;;
21611;SDS011;47005;52.292;13.452;2023-09-30T14:13:34;3.75;;;1.40;;
21611;SDS011;47005;52.292;13.452;2023-09-30T14:16:00;3.08;;;1.00;;
21611;SDS011;47005;52.292;13.452;2023-09-30T14:18:26;3.47;;;1.42;;
21611;SDS011;47005;52.292;13.452;2023-09-30T14:20:52;6.10;;;1.70;;
21611;SDS011;47005;52.292;13.452;2023-09-30T14:23:18;9.48;;;2.17;;
21611;SDS011;47005;52.292;13.452;2023-09-30T14:25:44;5.07;;;1.45;;
21611;SDS011;47005;52.292;13.452;2023-09-30T14:28:09;4.30;;;1.15;;
21611;SDS011;47005;52.292;13.452;2023-09-30T14:30:35;6.85;;;1.20;;
21611;SDS011;47005;52.292;13.452;2023-09-30T14:33:01;7.25;;;1.23;;
21611;SDS011;47005;52.292;13.452;2023-09-30T14:35:28;5.35;;;1.23;;
21611;SDS011;47005;52.292;13.452;2023-09-30T14:37:54;3.30;;;1.45;;
21611;SDS011;47005;52.292;13.452;2023-09-30T14:40:20;3.10;;;1.15;;
21611;SDS011;47005;52.292;13.452;2023-09-30T14:42:46;9.68;;;1.35;;
21611;SDS011;47005;52.292;13.452;2023-09-30T14:45:12;5.45;;;1.35;;
21611;SDS011;47005;52.292;13.452;2023-09-30T14:47:37;4.25;;;1.13;;
21611;SDS011;47005;52.292;13.452;2023-09-30T14:50:05;4.18;;;1.10;;
21611;SDS011;47005;52.292;13.452;2023-09-30T14:52:32;1.25;;;0.68;;
21611;SDS011;47005;52.292;13.452;2023-09-30T14:54:58;6.00;;;1.30;;
21611;SDS011;47005;52.292;13.452;2023-09-30T14:57:25;3.55;;;1.23;;
21611;SDS011;47005;52.292;13.452;2023-09-30T14:59:50;3.40;;;1.10;;